sensor_id;sensor_type;location;lat;lon;timestamp;P1;durP1;ratioP1;P2;durP2;ratioP2
69256;SDS011;56376;53.356;-1.748;2024-01-30T00:01:25;20.38;;;14.80;;
69256;SDS011;56376;53.356;-1.748;2024-01-30T00:03:52;17.08;;;13.35;;
69256;SDS011;56376;53.356;-1.748;2024-01-30T00:06:20;17.75;;;12.68;;
69256;SDS011;56376;53.356;-1.748;2024-01-30T00:08:46;17.15;;;13.10;;
69256;SDS011;56376;53.356;-1.748;2024-01-30T00:11:14;16.92;;;12.27;;
69256;SDS011;56376;53.356;-1.748;2024-01-30T00:13:39;17.35;;;13.13;;
69256;SDS011;56376;53.356;-1.748;2024-01-30T00:16:05;23.15;;;14.82;;
69256;SDS011;56376;53.356;-1.748;2024-01-30T00:18:31;19.90;;;14.57;;
69256;SDS011;56376;53.356;-1.748;2024-01-30T00:20:56;17.52;;;13.93;;
69256;SDS011;56376;53.356;-1.748;2024-01-30T00:23:22;18.73;;;12.80;;
69256;SDS011;56376;53.356;-1.748;2024-01-30T00:25:47;16.83;;;13.02;;
69256;SDS011;56376;53.356;-1.748;2024-01-30T00:28:12;20.05;;;13.75;;
69256;SDS011;56376;53.356;-1.748;2024-01-30T00:30:38;15.57;;;13.45;;
69256;SDS011;56376;53.356;-1.748;2024-01-30T00:33:04;18.95;;;12.45;;
69256;SDS011;56376;53.356;-1.748;2024-01-30T00:35:29;17.98;;;12.30;;
69256;SDS011;56376;53.356;-1.748;2024-01-30T00:37:55;19.17;;;13.23;;
69256;SDS011;56376;53.356;-1.748;2024-01-30T00:40:20;21.50;;;13.90;;
69256;SDS011;56376;53.356;-1.748;2024-01-30T00:42:46;22.30;;;15.00;;
69256;SDS011;56376;53.356;-1.748;2024-01-30T00:45:14;17.58;;;13.00;;
69256;SDS011;56376;53.356;-1.748;2024-01-30T00:47:40;16.48;;;12.30;;
69256;SDS011;56376;53.356;-1.748;2024-01-30T00:50:05;17.42;;;12.60;;
69256;SDS011;56376;53.356;-1.748;2024-01-30T00:52:31;17.63;;;12.95;;
69256;SDS011;56376;53.356;-1.748;2024-01-30T00:54:58;20.85;;;13.15;;
69256;SDS011;56376;53.356;-1.748;2024-01-30T00:57:24;19.67;;;12.45;;
69256;SDS011;56376;53.356;-1.748;2024-01-30T00:59:49;14.98;;;11.57;;
69256;SDS011;56376;53.356;-1.748;2024-01-30T01:02:14;15.50;;;11.35;;
69256;SDS011;56376;53.356;-1.748;2024-01-30T01:04:42;20.98;;;12.45;;
69256;SDS011;56376;53.356;-1.748;2024-01-30T01:07:07;14.60;;;11.25;;
69256;SDS011;56376;53.356;-1.748;2024-01-30T01:09:33;13.07;;;9.90;;
69256;SDS011;56376;53.356;-1.748;2024-01-30T01:11:58;20.05;;;12.48;;
69256;SDS011;56376;53.356;-1.748;2024-01-30T01:14:24;20.02;;;11.98;;
69256;SDS011;56376;53.356;-1.748;2024-01-30T01:16:50;17.70;;;11.93;;
69256;SDS011;56376;53.356;-1.748;2024-01-30T01:19:16;18.85;;;11.48;;
69256;SDS011;56376;53.356;-1.748;2024-01-30T01:21:42;17.45;;;11.55;;
69256;SDS011;56376;53.356;-1.748;2024-01-30T01:24:08;18.35;;;11.50;;
69256;SDS011;56376;53.356;-1.748;2024-01-30T01:26:34;14.48;;;10.85;;
69256;SDS011;56376;53.356;-1.748;2024-01-30T01:28:59;15.93;;;11.35;;
69256;SDS011;56376;53.356;-1.748;2024-01-30T01:31:25;15.45;;;10.43;;
69256;SDS011;56376;53.356;-1.748;2024-01-30T01:33:54;12.38;;;9.30;;
69256;SDS011;56376;53.356;-1.748;2024-01-30T01:36:20;11.95;;;8.20;;
69256;SDS011;56376;53.356;-1.748;2024-01-30T01:38:46;11.95;;;9.07;;
69256;SDS011;56376;53.356;-1.748;2024-01-30T01:41:11;10.73;;;8.13;;
69256;SDS011;56376;53.356;-1.748;2024-01-30T01:43:37;16.85;;;10.13;;
69256;SDS011;56376;53.356;-1.748;2024-01-30T01:46:04;17.73;;;9.98;;
69256;SDS011;56376;53.356;-1.748;2024-01-30T01:48:30;7.93;;;6.75;;
69256;SDS011;56376;53.356;-1.748;2024-01-30T01:50:55;5.78;;;4.93;;
69256;SDS011;56376;53.356;-1.748;2024-01-30T01:53:22;3.47;;;2.97;;
69256;SDS011;56376;53.356;-1.748;2024-01-30T01:55:47;2.85;;;2.38;;
69256;SDS011;56376;53.356;-1.748;2024-01-30T01:58:13;2.60;;;2.40;;
69256;SDS011;56376;53.356;-1.748;2024-01-30T02:00:39;2.30;;;2.10;;
69256;SDS011;56376;53.356;-1.748;2024-01-30T02:03:08;2.55;;;2.35;;
69256;SDS011;56376;53.356;-1.748;2024-01-30T02:05:36;2.10;;;1.90;;
69256;SDS011;56376;53.356;-1.748;2024-01-30T02:08:02;1.90;;;1.75;;
69256;SDS011;56376;53.356;-1.748;2024-01-30T02:10:28;1.80;;;1.70;;
69256;SDS011;56376;53.356;-1.748;2024-01-30T02:12:55;1.63;;;1.50;;
69256;SDS011;56376;53.356;-1.748;2024-01-30T02:15:20;2.03;;;1.90;;
69256;SDS011;56376;53.356;-1.748;2024-01-30T02:17:46;2.30;;;2.00;;
69256;SDS011;56376;53.356;-1.748;2024-01-30T02:20:11;2.10;;;1.90;;
69256;SDS011;56376;53.356;-1.748;2024-01-30T02:22:39;2.15;;;1.95;;
69256;SDS011;56376;53.356;-1.748;2024-01-30T02:25:05;2.40;;;2.20;;
69256;SDS011;56376;53.356;-1.748;2024-01-30T02:27:31;2.25;;;2.05;;
69256;SDS011;56376;53.356;-1.748;2024-01-30T02:29:57;2.42;;;2.22;;
69256;SDS011;56376;53.356;-1.748;2024-01-30T02:32:23;2.67;;;2.45;;
69256;SDS011;56376;53.356;-1.748;2024-01-30T02:34:49;2.70;;;2.50;;
69256;SDS011;56376;53.356;-1.748;2024-01-30T02:37:14;2.65;;;2.45;;
69256;SDS011;56376;53.356;-1.748;2024-01-30T02:39:39;2.70;;;2.50;;
69256;SDS011;56376;53.356;-1.748;2024-01-30T02:42:05;2.60;;;2.40;;
69256;SDS011;56376;53.356;-1.748;2024-01-30T02:44:31;2.10;;;1.90;;
69256;SDS011;56376;53.356;-1.748;2024-01-30T02:46:56;2.20;;;2.00;;
69256;SDS011;56376;53.356;-1.748;2024-01-30T02:49:22;1.90;;;1.80;;
69256;SDS011;56376;53.356;-1.748;2024-01-30T02:51:47;1.85;;;1.75;;
69256;SDS011;56376;53.356;-1.748;2024-01-30T02:54:13;1.40;;;1.30;;
69256;SDS011;56376;53.356;-1.748;2024-01-30T02:56:38;1.30;;;1.20;;
69256;SDS011;56376;53.356;-1.748;2024-01-30T02:59:04;1.08;;;1.08;;
69256;SDS011;56376;53.356;-1.748;2024-01-30T03:01:30;0.80;;;0.80;;
69256;SDS011;56376;53.356;-1.748;2024-01-30T03:03:57;1.05;;;1.00;;
69256;SDS011;56376;53.356;-1.748;2024-01-30T03:06:22;0.80;;;0.80;;
69256;SDS011;56376;53.356;-1.748;2024-01-30T03:08:48;0.82;;;0.82;;
69256;SDS011;56376;53.356;-1.748;2024-01-30T03:11:13;0.60;;;0.60;;
69256;SDS011;56376;53.356;-1.748;2024-01-30T03:13:39;0.68;;;0.68;;
69256;SDS011;56376;53.356;-1.748;2024-01-30T03:16:05;0.55;;;0.55;;
69256;SDS011;56376;53.356;-1.748;2024-01-30T03:18:31;0.45;;;0.45;;
69256;SDS011;56376;53.356;-1.748;2024-01-30T03:20:56;0.60;;;0.60;;
69256;SDS011;56376;53.356;-1.748;2024-01-30T03:23:22;0.40;;;0.40;;
69256;SDS011;56376;53.356;-1.748;2024-01-30T03:25:47;0.50;;;0.50;;
69256;SDS011;56376;53.356;-1.748;2024-01-30T03:28:13;1.05;;;0.30;;
69256;SDS011;56376;53.356;-1.748;2024-01-30T03:30:38;0.50;;;0.50;;
69256;SDS011;56376;53.356;-1.748;2024-01-30T03:33:04;0.57;;;0.45;;
69256;SDS011;56376;53.356;-1.748;2024-01-30T03:35:30;0.50;;;0.50;;
69256;SDS011;56376;53.356;-1.748;2024-01-30T03:37:55;0.40;;;0.40;;
69256;SDS011;56376;53.356;-1.748;2024-01-30T03:40:20;0.60;;;0.60;;
69256;SDS011;56376;53.356;-1.748;2024-01-30T03:42:46;0.60;;;0.60;;
69256;SDS011;56376;53.356;-1.748;2024-01-30T03:45:11;0.70;;;0.70;;
69256;SDS011;56376;53.356;-1.748;2024-01-30T03:47:37;1.65;;;0.75;;
69256;SDS011;56376;53.356;-1.748;2024-01-30T03:50:03;1.10;;;0.95;;
69256;SDS011;56376;53.356;-1.748;2024-01-30T03:52:30;1.90;;;1.70;;
69256;SDS011;56376;53.356;-1.748;2024-01-30T03:54:55;1.55;;;1.45;;
69256;SDS011;56376;53.356;-1.748;2024-01-30T03:57:21;1.60;;;1.50;;
69256;SDS011;56376;53.356;-1.748;2024-01-30T03:59:47;2.00;;;1.70;;
69256;SDS011;56376;53.356;-1.748;2024-01-30T04:02:12;1.40;;;1.30;;
69256;SDS011;56376;53.356;-1.748;2024-01-30T04:04:38;1.77;;;1.45;;
69256;SDS011;56376;53.356;-1.748;2024-01-30T04:07:03;1.35;;;1.25;;
69256;SDS011;56376;53.356;-1.748;2024-01-30T04:09:29;1.52;;;1.33;;
69256;SDS011;56376;53.356;-1.748;2024-01-30T04:11:54;1.50;;;1.40;;
69256;SDS011;56376;53.356;-1.748;2024-01-30T04:14:20;1.60;;;1.48;;
69256;SDS011;56376;53.356;-1.748;2024-01-30T04:16:45;1.83;;;1.67;;
69256;SDS011;56376;53.356;-1.748;2024-01-30T04:19:11;2.13;;;1.92;;
69256;SDS011;56376;53.356;-1.748;2024-01-30T04:21:36;1.80;;;1.60;;
69256;SDS011;56376;53.356;-1.748;2024-01-30T04:24:02;2.10;;;1.90;;
69256;SDS011;56376;53.356;-1.748;2024-01-30T04:26:27;2.05;;;1.85;;
69256;SDS011;56376;53.356;-1.748;2024-01-30T04:28:53;1.98;;;1.65;;
69256;SDS011;56376;53.356;-1.748;2024-01-30T04:31:18;2.25;;;2.05;;
69256;SDS011;56376;53.356;-1.748;2024-01-30T04:33:44;2.85;;;2.20;;
69256;SDS011;56376;53.356;-1.748;2024-01-30T04:36:10;2.08;;;1.85;;
69256;SDS011;56376;53.356;-1.748;2024-01-30T04:38:36;2.60;;;1.80;;
69256;SDS011;56376;53.356;-1.748;2024-01-30T04:41:02;2.72;;;1.95;;
69256;SDS011;56376;53.356;-1.748;2024-01-30T04:43:27;2.00;;;1.80;;
69256;SDS011;56376;53.356;-1.748;2024-01-30T04:45:53;2.30;;;1.80;;
69256;SDS011;56376;53.356;-1.748;2024-01-30T04:48:18;2.72;;;2.13;;
69256;SDS011;56376;53.356;-1.748;2024-01-30T04:50:44;2.80;;;2.40;;
69256;SDS011;56376;53.356;-1.748;2024-01-30T04:53:09;4.05;;;2.80;;
69256;SDS011;56376;53.356;-1.748;2024-01-30T04:55:35;2.95;;;2.65;;
69256;SDS011;56376;53.356;-1.748;2024-01-30T04:58:01;2.65;;;2.38;;
69256;SDS011;56376;53.356;-1.748;2024-01-30T05:00:27;3.10;;;2.80;;
69256;SDS011;56376;53.356;-1.748;2024-01-30T05:02:54;2.80;;;2.58;;
69256;SDS011;56376;53.356;-1.748;2024-01-30T05:05:20;2.80;;;2.50;;
69256;SDS011;56376;53.356;-1.748;2024-01-30T05:07:46;3.42;;;2.83;;
69256;SDS011;56376;53.356;-1.748;2024-01-30T05:10:12;3.67;;;3.38;;
69256;SDS011;56376;53.356;-1.748;2024-01-30T05:12:39;3.05;;;2.75;;
69256;SDS011;56376;53.356;-1.748;2024-01-30T05:15:05;4.90;;;3.33;;
69256;SDS011;56376;53.356;-1.748;2024-01-30T05:17:31;2.33;;;2.08;;
69256;SDS011;56376;53.356;-1.748;2024-01-30T05:19:57;2.50;;;2.30;;
69256;SDS011;56376;53.356;-1.748;2024-01-30T05:22:22;2.45;;;2.15;;
69256;SDS011;56376;53.356;-1.748;2024-01-30T05:24:48;2.50;;;1.75;;
69256;SDS011;56376;53.356;-1.748;2024-01-30T05:27:13;1.70;;;1.60;;
69256;SDS011;56376;53.356;-1.748;2024-01-30T05:29:39;1.77;;;1.63;;
69256;SDS011;56376;53.356;-1.748;2024-01-30T05:32:06;2.10;;;1.80;;
69256;SDS011;56376;53.356;-1.748;2024-01-30T05:34:31;2.95;;;1.90;;
69256;SDS011;56376;53.356;-1.748;2024-01-30T05:36:57;2.05;;;1.85;;
69256;SDS011;56376;53.356;-1.748;2024-01-30T05:39:23;3.25;;;2.05;;
69256;SDS011;56376;53.356;-1.748;2024-01-30T05:41:48;3.15;;;2.85;;
69256;SDS011;56376;53.356;-1.748;2024-01-30T05:44:14;2.80;;;2.50;;
69256;SDS011;56376;53.356;-1.748;2024-01-30T05:46:39;2.50;;;2.30;;
69256;SDS011;56376;53.356;-1.748;2024-01-30T05:49:05;2.92;;;2.60;;
69256;SDS011;56376;53.356;-1.748;2024-01-30T05:51:31;2.42;;;2.22;;
69256;SDS011;56376;53.356;-1.748;2024-01-30T05:53:56;2.20;;;2.00;;
69256;SDS011;56376;53.356;-1.748;2024-01-30T05:56:22;3.28;;;2.42;;
69256;SDS011;56376;53.356;-1.748;2024-01-30T05:58:47;2.60;;;2.40;;
69256;SDS011;56376;53.356;-1.748;2024-01-30T06:01:13;2.85;;;2.42;;
69256;SDS011;56376;53.356;-1.748;2024-01-30T06:03:38;2.35;;;2.03;;
69256;SDS011;56376;53.356;-1.748;2024-01-30T06:06:04;2.20;;;2.00;;
69256;SDS011;56376;53.356;-1.748;2024-01-30T06:08:29;2.30;;;2.00;;
69256;SDS011;56376;53.356;-1.748;2024-01-30T06:10:55;2.35;;;2.15;;
69256;SDS011;56376;53.356;-1.748;2024-01-30T06:13:20;2.60;;;2.40;;
69256;SDS011;56376;53.356;-1.748;2024-01-30T06:15:46;1.90;;;1.80;;
69256;SDS011;56376;53.356;-1.748;2024-01-30T06:18:11;2.88;;;2.17;;
69256;SDS011;56376;53.356;-1.748;2024-01-30T06:20:37;2.15;;;1.83;;
69256;SDS011;56376;53.356;-1.748;2024-01-30T06:23:03;3.00;;;1.92;;
69256;SDS011;56376;53.356;-1.748;2024-01-30T06:25:28;3.05;;;1.95;;
69256;SDS011;56376;53.356;-1.748;2024-01-30T06:27:54;2.08;;;1.88;;
69256;SDS011;56376;53.356;-1.748;2024-01-30T06:30:19;1.60;;;1.50;;
69256;SDS011;56376;53.356;-1.748;2024-01-30T06:32:46;1.50;;;1.40;;
69256;SDS011;56376;53.356;-1.748;2024-01-30T06:35:11;1.70;;;1.60;;
69256;SDS011;56376;53.356;-1.748;2024-01-30T06:37:37;1.95;;;1.75;;
69256;SDS011;56376;53.356;-1.748;2024-01-30T06:40:03;1.70;;;1.60;;
69256;SDS011;56376;53.356;-1.748;2024-01-30T06:42:30;2.05;;;1.67;;
69256;SDS011;56376;53.356;-1.748;2024-01-30T06:44:56;2.40;;;1.80;;
69256;SDS011;56376;53.356;-1.748;2024-01-30T06:47:21;1.85;;;1.73;;
69256;SDS011;56376;53.356;-1.748;2024-01-30T06:49:47;1.73;;;1.55;;
69256;SDS011;56376;53.356;-1.748;2024-01-30T06:52:12;2.33;;;1.63;;
69256;SDS011;56376;53.356;-1.748;2024-01-30T06:54:39;1.77;;;1.50;;
69256;SDS011;56376;53.356;-1.748;2024-01-30T06:57:04;1.50;;;1.30;;
69256;SDS011;56376;53.356;-1.748;2024-01-30T06:59:34;1.50;;;1.40;;
69256;SDS011;56376;53.356;-1.748;2024-01-30T07:02:00;1.40;;;1.30;;
69256;SDS011;56376;53.356;-1.748;2024-01-30T07:04:25;1.50;;;1.40;;
69256;SDS011;56376;53.356;-1.748;2024-01-30T07:06:50;1.35;;;1.25;;
69256;SDS011;56376;53.356;-1.748;2024-01-30T07:09:18;1.23;;;1.02;;
69256;SDS011;56376;53.356;-1.748;2024-01-30T07:11:43;0.80;;;0.80;;
69256;SDS011;56376;53.356;-1.748;2024-01-30T07:14:09;0.70;;;0.70;;
69256;SDS011;56376;53.356;-1.748;2024-01-30T07:16:34;0.60;;;0.60;;
69256;SDS011;56376;53.356;-1.748;2024-01-30T07:19:00;0.60;;;0.60;;
69256;SDS011;56376;53.356;-1.748;2024-01-30T07:21:25;1.08;;;0.52;;
69256;SDS011;56376;53.356;-1.748;2024-01-30T07:23:56;0.50;;;0.50;;
69256;SDS011;56376;53.356;-1.748;2024-01-30T07:26:22;0.50;;;0.50;;
69256;SDS011;56376;53.356;-1.748;2024-01-30T07:28:48;0.60;;;0.60;;
69256;SDS011;56376;53.356;-1.748;2024-01-30T07:31:13;0.60;;;0.60;;
69256;SDS011;56376;53.356;-1.748;2024-01-30T07:33:39;0.30;;;0.30;;
69256;SDS011;56376;53.356;-1.748;2024-01-30T07:36:05;0.50;;;0.50;;
69256;SDS011;56376;53.356;-1.748;2024-01-30T07:38:33;0.32;;;0.30;;
69256;SDS011;56376;53.356;-1.748;2024-01-30T07:40:59;0.40;;;0.40;;
69256;SDS011;56376;53.356;-1.748;2024-01-30T07:43:25;0.20;;;0.20;;
69256;SDS011;56376;53.356;-1.748;2024-01-30T07:45:50;0.10;;;0.10;;
69256;SDS011;56376;53.356;-1.748;2024-01-30T07:48:16;0.10;;;0.10;;
69256;SDS011;56376;53.356;-1.748;2024-01-30T07:50:42;0.10;;;0.10;;
69256;SDS011;56376;53.356;-1.748;2024-01-30T07:53:07;0.10;;;0.10;;
69256;SDS011;56376;53.356;-1.748;2024-01-30T07:55:33;0.20;;;0.20;;
69256;SDS011;56376;53.356;-1.748;2024-01-30T07:57:58;0.35;;;0.30;;
69256;SDS011;56376;53.356;-1.748;2024-01-30T08:00:24;0.13;;;0.13;;
69256;SDS011;56376;53.356;-1.748;2024-01-30T08:02:50;0.65;;;0.20;;
69256;SDS011;56376;53.356;-1.748;2024-01-30T08:05:15;0.40;;;0.20;;
69256;SDS011;56376;53.356;-1.748;2024-01-30T08:07:41;0.30;;;0.30;;
69256;SDS011;56376;53.356;-1.748;2024-01-30T08:10:08;0.30;;;0.30;;
69256;SDS011;56376;53.356;-1.748;2024-01-30T08:12:33;0.38;;;0.20;;
69256;SDS011;56376;53.356;-1.748;2024-01-30T08:14:59;0.13;;;0.13;;
69256;SDS011;56376;53.356;-1.748;2024-01-30T08:17:24;0.20;;;0.20;;
69256;SDS011;56376;53.356;-1.748;2024-01-30T08:19:50;0.20;;;0.20;;
69256;SDS011;56376;53.356;-1.748;2024-01-30T08:22:16;0.20;;;0.20;;
69256;SDS011;56376;53.356;-1.748;2024-01-30T08:24:42;0.10;;;0.10;;
69256;SDS011;56376;53.356;-1.748;2024-01-30T08:27:07;0.10;;;0.10;;
69256;SDS011;56376;53.356;-1.748;2024-01-30T08:29:37;0.35;;;0.20;;
69256;SDS011;56376;53.356;-1.748;2024-01-30T08:32:03;0.55;;;0.10;;
69256;SDS011;56376;53.356;-1.748;2024-01-30T08:34:30;0.20;;;0.20;;
69256;SDS011;56376;53.356;-1.748;2024-01-30T08:36:56;0.20;;;0.20;;
69256;SDS011;56376;53.356;-1.748;2024-01-30T08:39:21;0.10;;;0.10;;
69256;SDS011;56376;53.356;-1.748;2024-01-30T08:41:47;0.20;;;0.20;;
69256;SDS011;56376;53.356;-1.748;2024-01-30T08:44:12;0.20;;;0.20;;
69256;SDS011;56376;53.356;-1.748;2024-01-30T08:46:38;0.38;;;0.20;;
69256;SDS011;56376;53.356;-1.748;2024-01-30T08:49:03;0.30;;;0.30;;
69256;SDS011;56376;53.356;-1.748;2024-01-30T08:51:31;0.30;;;0.30;;
69256;SDS011;56376;53.356;-1.748;2024-01-30T08:53:57;0.20;;;0.20;;
69256;SDS011;56376;53.356;-1.748;2024-01-30T08:56:22;0.30;;;0.30;;
69256;SDS011;56376;53.356;-1.748;2024-01-30T08:58:48;2.30;;;0.30;;
69256;SDS011;56376;53.356;-1.748;2024-01-30T09:01:14;0.25;;;0.20;;
69256;SDS011;56376;53.356;-1.748;2024-01-30T09:03:40;0.50;;;0.35;;
69256;SDS011;56376;53.356;-1.748;2024-01-30T09:06:12;0.65;;;0.60;;
69256;SDS011;56376;53.356;-1.748;2024-01-30T09:08:38;1.23;;;1.13;;
69256;SDS011;56376;53.356;-1.748;2024-01-30T09:11:11;1.52;;;1.42;;
69256;SDS011;56376;53.356;-1.748;2024-01-30T09:13:37;1.17;;;1.13;;
69256;SDS011;56376;53.356;-1.748;2024-01-30T09:16:03;0.80;;;0.80;;
69256;SDS011;56376;53.356;-1.748;2024-01-30T09:18:29;1.03;;;0.83;;
69256;SDS011;56376;53.356;-1.748;2024-01-30T09:20:55;0.80;;;0.80;;
69256;SDS011;56376;53.356;-1.748;2024-01-30T09:23:21;0.70;;;0.70;;
69256;SDS011;56376;53.356;-1.748;2024-01-30T09:25:47;1.42;;;0.65;;
69256;SDS011;56376;53.356;-1.748;2024-01-30T09:28:12;0.60;;;0.60;;
69256;SDS011;56376;53.356;-1.748;2024-01-30T09:30:38;0.45;;;0.45;;
69256;SDS011;56376;53.356;-1.748;2024-01-30T09:33:04;0.40;;;0.40;;
69256;SDS011;56376;53.356;-1.748;2024-01-30T09:35:30;0.50;;;0.50;;
69256;SDS011;56376;53.356;-1.748;2024-01-30T09:37:55;0.40;;;0.40;;
69256;SDS011;56376;53.356;-1.748;2024-01-30T09:40:22;0.43;;;0.43;;
69256;SDS011;56376;53.356;-1.748;2024-01-30T09:42:48;0.47;;;0.47;;
69256;SDS011;56376;53.356;-1.748;2024-01-30T09:45:17;0.90;;;0.90;;
69256;SDS011;56376;53.356;-1.748;2024-01-30T09:47:43;0.60;;;0.60;;
69256;SDS011;56376;53.356;-1.748;2024-01-30T09:50:11;0.70;;;0.70;;
69256;SDS011;56376;53.356;-1.748;2024-01-30T09:52:39;0.50;;;0.50;;
69256;SDS011;56376;53.356;-1.748;2024-01-30T09:55:05;0.52;;;0.52;;
69256;SDS011;56376;53.356;-1.748;2024-01-30T09:57:31;0.85;;;0.85;;
69256;SDS011;56376;53.356;-1.748;2024-01-30T09:59:57;0.70;;;0.70;;
69256;SDS011;56376;53.356;-1.748;2024-01-30T10:02:23;0.73;;;0.73;;
69256;SDS011;56376;53.356;-1.748;2024-01-30T10:04:51;0.90;;;0.90;;
69256;SDS011;56376;53.356;-1.748;2024-01-30T10:07:17;1.25;;;0.88;;
69256;SDS011;56376;53.356;-1.748;2024-01-30T10:09:44;1.98;;;1.00;;
69256;SDS011;56376;53.356;-1.748;2024-01-30T10:12:11;2.10;;;0.93;;
69256;SDS011;56376;53.356;-1.748;2024-01-30T10:14:37;0.70;;;0.70;;
69256;SDS011;56376;53.356;-1.748;2024-01-30T10:17:03;0.90;;;0.90;;
69256;SDS011;56376;53.356;-1.748;2024-01-30T10:19:30;0.93;;;0.90;;
69256;SDS011;56376;53.356;-1.748;2024-01-30T10:21:59;0.80;;;0.80;;
69256;SDS011;56376;53.356;-1.748;2024-01-30T10:24:25;0.90;;;0.90;;
69256;SDS011;56376;53.356;-1.748;2024-01-30T10:26:51;0.82;;;0.82;;
69256;SDS011;56376;53.356;-1.748;2024-01-30T10:29:18;1.13;;;0.88;;
69256;SDS011;56376;53.356;-1.748;2024-01-30T10:31:44;1.10;;;1.00;;
69256;SDS011;56376;53.356;-1.748;2024-01-30T10:34:09;0.93;;;0.93;;
69256;SDS011;56376;53.356;-1.748;2024-01-30T10:36:40;0.63;;;0.63;;
69256;SDS011;56376;53.356;-1.748;2024-01-30T10:39:08;0.73;;;0.70;;
69256;SDS011;56376;53.356;-1.748;2024-01-30T10:41:37;1.08;;;0.80;;
69256;SDS011;56376;53.356;-1.748;2024-01-30T10:44:10;1.95;;;1.02;;
69256;SDS011;56376;53.356;-1.748;2024-01-30T10:46:39;1.43;;;0.80;;
69256;SDS011;56376;53.356;-1.748;2024-01-30T10:49:10;0.60;;;0.60;;
69256;SDS011;56376;53.356;-1.748;2024-01-30T10:51:36;0.85;;;0.80;;
69256;SDS011;56376;53.356;-1.748;2024-01-30T10:54:03;0.70;;;0.70;;
69256;SDS011;56376;53.356;-1.748;2024-01-30T10:56:30;0.98;;;0.90;;
69256;SDS011;56376;53.356;-1.748;2024-01-30T10:58:58;0.68;;;0.68;;
69256;SDS011;56376;53.356;-1.748;2024-01-30T11:01:24;0.83;;;0.83;;
69256;SDS011;56376;53.356;-1.748;2024-01-30T11:03:52;0.98;;;0.98;;
69256;SDS011;56376;53.356;-1.748;2024-01-30T11:06:22;1.95;;;1.67;;
69256;SDS011;56376;53.356;-1.748;2024-01-30T11:09:05;1.92;;;1.70;;
69256;SDS011;56376;53.356;-1.748;2024-01-30T11:11:49;1.30;;;1.20;;
69256;SDS011;56376;53.356;-1.748;2024-01-30T11:14:14;1.50;;;1.40;;
69256;SDS011;56376;53.356;-1.748;2024-01-30T11:16:40;1.50;;;1.40;;
69256;SDS011;56376;53.356;-1.748;2024-01-30T11:19:05;1.23;;;1.13;;
69256;SDS011;56376;53.356;-1.748;2024-01-30T11:21:42;0.90;;;0.90;;
69256;SDS011;56376;53.356;-1.748;2024-01-30T11:24:08;0.80;;;0.80;;
69256;SDS011;56376;53.356;-1.748;2024-01-30T11:26:34;1.05;;;0.88;;
69256;SDS011;56376;53.356;-1.748;2024-01-30T11:29:02;0.70;;;0.70;;
69256;SDS011;56376;53.356;-1.748;2024-01-30T11:31:29;1.20;;;1.10;;
69256;SDS011;56376;53.356;-1.748;2024-01-30T11:33:55;1.20;;;1.10;;
69256;SDS011;56376;53.356;-1.748;2024-01-30T11:36:23;1.70;;;1.42;;
69256;SDS011;56376;53.356;-1.748;2024-01-30T11:38:52;1.83;;;1.73;;
69256;SDS011;56376;53.356;-1.748;2024-01-30T11:41:17;2.17;;;1.50;;
69256;SDS011;56376;53.356;-1.748;2024-01-30T11:43:50;1.85;;;1.65;;
69256;SDS011;56376;53.356;-1.748;2024-01-30T11:46:16;1.70;;;1.60;;
69256;SDS011;56376;53.356;-1.748;2024-01-30T11:48:42;1.80;;;1.70;;
69256;SDS011;56376;53.356;-1.748;2024-01-30T11:51:08;1.50;;;1.40;;
69256;SDS011;56376;53.356;-1.748;2024-01-30T11:53:33;1.48;;;1.38;;
69256;SDS011;56376;53.356;-1.748;2024-01-30T11:55:59;1.30;;;1.20;;
69256;SDS011;56376;53.356;-1.748;2024-01-30T11:58:25;1.50;;;1.35;;
69256;SDS011;56376;53.356;-1.748;2024-01-30T12:00:54;2.13;;;1.40;;
69256;SDS011;56376;53.356;-1.748;2024-01-30T12:03:21;1.60;;;1.50;;
69256;SDS011;56376;53.356;-1.748;2024-01-30T12:05:46;1.55;;;1.45;;
69256;SDS011;56376;53.356;-1.748;2024-01-30T12:08:15;1.63;;;1.33;;
69256;SDS011;56376;53.356;-1.748;2024-01-30T12:10:41;1.70;;;1.58;;
69256;SDS011;56376;53.356;-1.748;2024-01-30T12:13:07;2.22;;;1.30;;
69256;SDS011;56376;53.356;-1.748;2024-01-30T12:15:33;1.35;;;1.10;;
69256;SDS011;56376;53.356;-1.748;2024-01-30T12:18:05;1.00;;;1.00;;
69256;SDS011;56376;53.356;-1.748;2024-01-30T12:20:31;1.38;;;1.25;;
69256;SDS011;56376;53.356;-1.748;2024-01-30T12:22:56;0.88;;;0.88;;
69256;SDS011;56376;53.356;-1.748;2024-01-30T12:25:22;0.83;;;0.83;;
69256;SDS011;56376;53.356;-1.748;2024-01-30T12:27:49;2.40;;;1.23;;
69256;SDS011;56376;53.356;-1.748;2024-01-30T12:30:16;1.33;;;0.90;;
69256;SDS011;56376;53.356;-1.748;2024-01-30T12:32:46;1.10;;;1.00;;
69256;SDS011;56376;53.356;-1.748;2024-01-30T12:35:15;0.88;;;0.88;;
69256;SDS011;56376;53.356;-1.748;2024-01-30T12:37:42;0.80;;;0.80;;
69256;SDS011;56376;53.356;-1.748;2024-01-30T12:40:10;1.02;;;0.90;;
69256;SDS011;56376;53.356;-1.748;2024-01-30T12:42:40;0.70;;;0.70;;
69256;SDS011;56376;53.356;-1.748;2024-01-30T12:45:07;1.33;;;0.60;;
69256;SDS011;56376;53.356;-1.748;2024-01-30T12:47:34;0.55;;;0.55;;
69256;SDS011;56376;53.356;-1.748;2024-01-30T12:49:59;0.60;;;0.60;;
69256;SDS011;56376;53.356;-1.748;2024-01-30T12:52:25;0.88;;;0.80;;
69256;SDS011;56376;53.356;-1.748;2024-01-30T12:54:51;0.70;;;0.70;;
69256;SDS011;56376;53.356;-1.748;2024-01-30T12:57:17;0.82;;;0.82;;
69256;SDS011;56376;53.356;-1.748;2024-01-30T12:59:43;0.80;;;0.80;;
69256;SDS011;56376;53.356;-1.748;2024-01-30T13:02:10;1.40;;;0.80;;
69256;SDS011;56376;53.356;-1.748;2024-01-30T13:04:36;0.80;;;0.70;;
69256;SDS011;56376;53.356;-1.748;2024-01-30T13:07:02;0.80;;;0.80;;
69256;SDS011;56376;53.356;-1.748;2024-01-30T13:09:29;0.60;;;0.60;;
69256;SDS011;56376;53.356;-1.748;2024-01-30T13:11:56;0.70;;;0.70;;
69256;SDS011;56376;53.356;-1.748;2024-01-30T13:14:22;0.73;;;0.52;;
69256;SDS011;56376;53.356;-1.748;2024-01-30T13:16:47;0.77;;;0.77;;
69256;SDS011;56376;53.356;-1.748;2024-01-30T13:19:13;0.60;;;0.60;;
69256;SDS011;56376;53.356;-1.748;2024-01-30T13:21:38;0.65;;;0.50;;
69256;SDS011;56376;53.356;-1.748;2024-01-30T13:24:04;0.55;;;0.55;;
69256;SDS011;56376;53.356;-1.748;2024-01-30T13:26:31;0.60;;;0.50;;
69256;SDS011;56376;53.356;-1.748;2024-01-30T13:28:58;0.60;;;0.60;;
69256;SDS011;56376;53.356;-1.748;2024-01-30T13:31:23;1.77;;;0.50;;
69256;SDS011;56376;53.356;-1.748;2024-01-30T13:33:49;0.95;;;0.55;;
69256;SDS011;56376;53.356;-1.748;2024-01-30T13:36:14;0.50;;;0.50;;
69256;SDS011;56376;53.356;-1.748;2024-01-30T13:38:40;0.82;;;0.68;;
69256;SDS011;56376;53.356;-1.748;2024-01-30T13:41:06;0.60;;;0.60;;
69256;SDS011;56376;53.356;-1.748;2024-01-30T13:43:32;2.55;;;1.23;;
69256;SDS011;56376;53.356;-1.748;2024-01-30T13:45:57;0.80;;;0.75;;
69256;SDS011;56376;53.356;-1.748;2024-01-30T13:48:23;1.75;;;0.63;;
69256;SDS011;56376;53.356;-1.748;2024-01-30T13:50:49;0.93;;;0.70;;
69256;SDS011;56376;53.356;-1.748;2024-01-30T13:53:15;1.80;;;0.80;;
69256;SDS011;56376;53.356;-1.748;2024-01-30T13:55:40;0.98;;;0.77;;
69256;SDS011;56376;53.356;-1.748;2024-01-30T13:58:06;0.93;;;0.73;;
69256;SDS011;56376;53.356;-1.748;2024-01-30T14:00:33;1.48;;;1.00;;
69256;SDS011;56376;53.356;-1.748;2024-01-30T14:02:59;1.17;;;0.93;;
69256;SDS011;56376;53.356;-1.748;2024-01-30T14:05:25;1.17;;;1.08;;
69256;SDS011;56376;53.356;-1.748;2024-01-30T14:07:54;2.00;;;1.00;;
69256;SDS011;56376;53.356;-1.748;2024-01-30T14:10:20;1.10;;;1.00;;
69256;SDS011;56376;53.356;-1.748;2024-01-30T14:12:46;2.33;;;1.20;;
69256;SDS011;56376;53.356;-1.748;2024-01-30T14:15:13;1.77;;;1.00;;
69256;SDS011;56376;53.356;-1.748;2024-01-30T14:17:46;2.08;;;1.40;;
69256;SDS011;56376;53.356;-1.748;2024-01-30T14:20:13;1.52;;;0.98;;
69256;SDS011;56376;53.356;-1.748;2024-01-30T14:22:42;2.38;;;1.10;;
69256;SDS011;56376;53.356;-1.748;2024-01-30T14:25:07;1.15;;;1.00;;